Time;durP1;ratioP1;P1;durP2;ratioP2;P2;SDS_P1;SDS_P2;PMS_P1;PMS_P2;Temp;Humidity;BMP_temperature;BMP_pressure;BME280_temperature;BME280_humidity;BME280_pressure;Samples;Min_cycle;Max_cycle;Signal;HPM_P1;HPM_P2
2022/12/05 00:02:05;;;;;;;45.08;27.70;;;;;;;;;;5047081;28;20426;-80
2022/12/05 00:04:31;;;;;;;45.75;27.90;;;;;;;;;;5046357;28;20910;-79
2022/12/05 00:06:58;;;;;;;43.17;28.52;;;;;;;;;;5049742;28;20421;-79
2022/12/05 00:09:25;;;;;;;46.22;28.42;;;;;;;;;;5045382;28;20422;-79
2022/12/05 00:11:51;;;;;;;46.47;28.05;;;;;;;;;;5047736;28;20866;-79
2022/12/05 00:14:18;;;;;;;46.15;28.40;;;;;;;;;;5047658;28;20420;-79
2022/12/05 00:16:45;;;;;;;47.00;28.23;;;;;;;;;;5045530;28;20429;-80
2022/12/05 00:19:13;;;;;;;44.50;28.27;;;;;;;;;;5048257;28;20431;-80
2022/12/05 00:21:40;;;;;;;47.28;29.58;;;;;;;;;;5045774;28;20432;-79
2022/12/05 00:24:08;;;;;;;48.80;30.45;;;;;;;;;;5042930;28;20433;-80
2022/12/05 00:26:35;;;;;;;44.85;28.58;;;;;;;;;;5048799;28;20926;-79
2022/12/05 00:29:01;;;;;;;50.13;28.90;;;;;;;;;;5043682;28;20415;-79
2022/12/05 00:31:28;;;;;;;47.75;28.55;;;;;;;;;;5042814;28;20411;-79
2022/12/05 00:33:55;;;;;;;46.83;29.50;;;;;;;;;;5047452;28;20421;-79
2022/12/05 00:36:24;;;;;;;50.22;28.77;;;;;;;;;;5045525;28;20925;-82
2022/12/05 00:38:51;;;;;;;48.20;28.75;;;;;;;;;;5047237;28;20419;-81
2022/12/05 00:41:18;;;;;;;46.15;29.40;;;;;;;;;;5049439;28;20780;-79
2022/12/05 00:43:46;;;;;;;48.45;29.33;;;;;;;;;;5048724;28;20938;-80
2022/12/05 00:46:14;;;;;;;46.92;29.27;;;;;;;;;;5046234;28;20447;-79
2022/12/05 00:48:40;;;;;;;50.95;30.08;;;;;;;;;;5045998;28;20424;-80
2022/12/05 00:51:10;;;;;;;51.17;30.95;;;;;;;;;;5046893;28;20413;-80
2022/12/05 00:53:40;;;;;;;49.15;28.88;;;;;;;;;;5044969;28;20433;-81
2022/12/05 00:56:08;;;;;;;54.75;31.40;;;;;;;;;;5041717;28;20423;-80
2022/12/05 00:58:36;;;;;;;54.05;30.67;;;;;;;;;;5046521;28;20432;-81
2022/12/05 01:01:05;;;;;;;50.78;30.50;;;;;;;;;;5047145;28;20429;-80
2022/12/05 01:03:32;;;;;;;49.33;30.77;;;;;;;;;;5048160;28;20420;-79
2022/12/05 01:05:58;;;;;;;51.80;30.95;;;;;;;;;;5052629;28;20553;-80
2022/12/05 01:08:27;;;;;;;52.03;31.40;;;;;;;;;;5047105;28;20833;-82
2022/12/05 01:10:55;;;;;;;53.00;30.70;;;;;;;;;;5045382;28;20428;-81
2022/12/05 01:13:22;;;;;;;50.80;30.33;;;;;;;;;;5048103;28;20427;-78
2022/12/05 01:15:49;;;;;;;50.38;30.23;;;;;;;;;;5051939;28;20435;-79
2022/12/05 01:18:16;;;;;;;53.65;31.30;;;;;;;;;;5052163;28;20425;-79
2022/12/05 01:20:43;;;;;;;48.65;29.92;;;;;;;;;;5046311;28;20433;-79
2022/12/05 01:23:09;;;;;;;55.67;31.17;;;;;;;;;;5050857;28;20425;-79
2022/12/05 01:25:39;;;;;;;49.80;29.30;;;;;;;;;;5049072;28;20436;-80
2022/12/05 01:28:07;;;;;;;51.45;30.45;;;;;;;;;;5052503;28;20419;-80
2022/12/05 01:30:33;;;;;;;49.70;30.30;;;;;;;;;;5049591;28;20810;-80
2022/12/05 01:33:00;;;;;;;51.13;29.65;;;;;;;;;;5052547;28;20421;-79
2022/12/05 01:35:26;;;;;;;50.30;29.67;;;;;;;;;;5052711;28;20425;-80
2022/12/05 01:37:53;;;;;;;49.13;30.52;;;;;;;;;;5047333;28;20423;-81
2022/12/05 01:40:20;;;;;;;45.87;29.00;;;;;;;;;;5046031;28;20928;-80
2022/12/05 01:42:47;;;;;;;50.03;30.27;;;;;;;;;;5046416;28;20428;-79
2022/12/05 01:45:16;;;;;;;47.95;29.98;;;;;;;;;;5050364;28;20788;-79
2022/12/05 01:47:42;;;;;;;50.22;29.65;;;;;;;;;;5049733;28;20433;-81
2022/12/05 01:50:09;;;;;;;45.70;29.38;;;;;;;;;;5048413;28;20414;-81
2022/12/05 01:52:36;;;;;;;51.95;29.85;;;;;;;;;;5050499;28;20413;-80
2022/12/05 01:55:05;;;;;;;48.42;29.92;;;;;;;;;;5050874;28;20427;-80
2022/12/05 01:57:32;;;;;;;51.40;29.77;;;;;;;;;;5049214;28;20448;-80
2022/12/05 02:00:00;;;;;;;49.65;28.30;;;;;;;;;;5049293;28;20412;-80
2022/12/05 02:02:28;;;;;;;46.88;28.27;;;;;;;;;;5055066;28;20436;-80
2022/12/05 02:04:58;;;;;;;45.05;28.98;;;;;;;;;;5050402;28;20421;-82
2022/12/05 02:07:25;;;;;;;52.15;28.38;;;;;;;;;;5046926;28;20418;-80
2022/12/05 02:09:51;;;;;;;44.23;27.40;;;;;;;;;;5051291;28;20425;-80
2022/12/05 02:12:18;;;;;;;46.00;26.95;;;;;;;;;;5048895;28;20429;-79
2022/12/05 02:14:50;;;;;;;49.63;29.77;;;;;;;;;;5049333;28;20786;-79
2022/12/05 02:17:19;;;;;;;46.47;28.15;;;;;;;;;;5046453;28;20431;-81
2022/12/05 02:20:00;;;;;;;44.35;27.42;;;;;;;;;;5050110;28;20421;-81
2022/12/05 02:22:42;;;;;;;45.40;27.93;;;;;;;;;;5049566;28;21109;-79
2022/12/05 02:25:15;;;;;;;39.55;26.70;;;;;;;;;;5037237;28;20433;-79
2022/12/05 02:28:08;;;;;;;46.28;26.58;;;;;;;;;;5049686;28;20435;-80
2022/12/05 02:30:38;;;;;;;43.55;27.17;;;;;;;;;;5051676;28;20935;-79
2022/12/05 02:33:08;;;;;;;42.80;26.95;;;;;;;;;;5049930;28;20429;-80
2022/12/05 02:35:40;;;;;;;41.90;25.97;;;;;;;;;;5047777;28;20782;-79
2022/12/05 02:38:13;;;;;;;44.67;26.48;;;;;;;;;;5049812;28;20428;-79
2022/12/05 02:40:43;;;;;;;40.92;25.98;;;;;;;;;;5047313;28;20446;-80
2022/12/05 02:43:13;;;;;;;44.10;28.33;;;;;;;;;;5048301;28;20425;-80
2022/12/05 02:45:41;;;;;;;38.50;25.73;;;;;;;;;;5043278;28;20923;-81
2022/12/05 02:48:09;;;;;;;39.70;25.55;;;;;;;;;;5045769;28;20417;-81
2022/12/05 02:50:37;;;;;;;38.97;24.92;;;;;;;;;;5046651;28;20430;-81
2022/12/05 02:53:06;;;;;;;39.57;26.80;;;;;;;;;;5049915;28;20429;-81
2022/12/05 02:55:35;;;;;;;38.67;25.55;;;;;;;;;;5049304;28;20433;-81
2022/12/05 02:58:04;;;;;;;43.83;25.33;;;;;;;;;;5054191;28;20935;-81
2022/12/05 03:00:32;;;;;;;41.03;25.30;;;;;;;;;;5049175;28;20433;-82
2022/12/05 03:03:00;;;;;;;34.97;23.70;;;;;;;;;;5050396;28;20919;-81
2022/12/05 03:05:34;;;;;;;37.37;24.40;;;;;;;;;;5048272;28;20422;-82
2022/12/05 03:08:02;;;;;;;37.42;24.73;;;;;;;;;;5043451;28;20430;-82
2022/12/05 03:10:30;;;;;;;36.92;23.80;;;;;;;;;;5046693;28;20484;-82
2022/12/05 03:13:00;;;;;;;37.80;23.80;;;;;;;;;;5046335;28;20969;-82
2022/12/05 03:15:29;;;;;;;38.80;24.17;;;;;;;;;;5045054;28;20445;-81
2022/12/05 03:17:57;;;;;;;33.30;23.00;;;;;;;;;;5050100;28;20806;-80
2022/12/05 03:20:28;;;;;;;38.17;24.10;;;;;;;;;;5052532;28;20425;-80
2022/12/05 03:22:57;;;;;;;37.63;24.15;;;;;;;;;;5049439;28;20436;-80
2022/12/05 03:25:27;;;;;;;37.78;23.67;;;;;;;;;;5049334;28;20426;-81
2022/12/05 03:27:57;;;;;;;35.60;22.50;;;;;;;;;;5049383;28;20460;-82
2022/12/05 03:30:24;;;;;;;35.40;22.73;;;;;;;;;;5047148;28;20444;-81
2022/12/05 03:32:55;;;;;;;36.25;23.30;;;;;;;;;;5048127;28;20978;-80
2022/12/05 03:35:23;;;;;;;39.28;23.67;;;;;;;;;;5048860;28;20432;-81
2022/12/05 03:37:52;;;;;;;35.95;23.02;;;;;;;;;;5046580;28;20426;-81
2022/12/05 03:40:23;;;;;;;37.23;24.80;;;;;;;;;;5052244;28;20483;-80
2022/12/05 03:42:54;;;;;;;35.40;23.17;;;;;;;;;;5048398;28;20426;-81
2022/12/05 03:45:24;;;;;;;35.80;23.35;;;;;;;;;;5049159;28;20768;-81
2022/12/05 03:47:54;;;;;;;36.40;22.35;;;;;;;;;;5045537;28;21325;-81
2022/12/05 03:50:24;;;;;;;35.50;22.93;;;;;;;;;;5048594;28;20487;-80
2022/12/05 03:52:54;;;;;;;37.58;24.00;;;;;;;;;;5045312;28;20438;-82
2022/12/05 03:55:23;;;;;;;34.95;23.90;;;;;;;;;;5044417;28;20438;-81
2022/12/05 03:57:51;;;;;;;36.30;23.73;;;;;;;;;;5045871;28;20425;-81
2022/12/05 04:00:19;;;;;;;40.10;23.80;;;;;;;;;;5050104;28;20420;-81
2022/12/05 04:02:49;;;;;;;36.22;23.73;;;;;;;;;;5046283;28;20434;-81
2022/12/05 04:05:20;;;;;;;36.83;23.40;;;;;;;;;;5045520;28;20436;-81
2022/12/05 04:07:48;;;;;;;35.47;23.58;;;;;;;;;;5045256;28;20439;-82
2022/12/05 04:10:19;;;;;;;37.50;23.80;;;;;;;;;;5046407;28;20418;-81
2022/12/05 04:12:46;;;;;;;42.05;25.83;;;;;;;;;;5045729;28;21000;-81
2022/12/05 04:15:14;;;;;;;39.65;25.40;;;;;;;;;;5050098;28;20428;-81
2022/12/05 04:17:44;;;;;;;46.37;25.53;;;;;;;;;;5046231;28;20429;-82
2022/12/05 04:22:56;;;;;;;42.85;26.45;;;;;;;;;;5049183;28;20471;-81
2022/12/05 04:25:33;;;;;;;41.78;25.42;;;;;;;;;;5048073;28;20420;-80
2022/12/05 04:28:01;;;;;;;41.45;25.25;;;;;;;;;;5042892;28;21029;-80
2022/12/05 04:30:31;;;;;;;40.10;25.77;;;;;;;;;;5045302;28;20425;-80
2022/12/05 04:33:00;;;;;;;43.22;26.27;;;;;;;;;;5044537;28;20438;-80
2022/12/05 04:35:29;;;;;;;42.72;25.40;;;;;;;;;;5046190;28;20434;-80
2022/12/05 04:37:59;;;;;;;41.28;25.58;;;;;;;;;;5044270;28;20429;-79
2022/12/05 04:40:31;;;;;;;40.22;24.88;;;;;;;;;;5047342;28;20424;-78
2022/12/05 04:42:59;;;;;;;41.70;25.05;;;;;;;;;;5048170;28;20434;-79
2022/12/05 04:45:26;;;;;;;42.65;25.17;;;;;;;;;;5048535;28;20420;-81
2022/12/05 04:47:55;;;;;;;37.45;24.30;;;;;;;;;;5047671;28;20414;-81
2022/12/05 04:50:23;;;;;;;41.40;25.95;;;;;;;;;;5046472;28;20430;-78
2022/12/05 04:52:51;;;;;;;41.90;24.45;;;;;;;;;;5046840;28;20456;-80
2022/12/05 04:55:24;;;;;;;40.50;23.60;;;;;;;;;;5047439;28;20803;-79
2022/12/05 04:57:55;;;;;;;34.58;21.45;;;;;;;;;;5047009;28;20432;-80
2022/12/05 05:00:22;;;;;;;35.92;22.40;;;;;;;;;;5046102;28;20504;-79
2022/12/05 05:02:51;;;;;;;38.13;22.50;;;;;;;;;;5046834;28;20500;-79
2022/12/05 05:05:18;;;;;;;32.05;20.85;;;;;;;;;;5044522;28;20420;-79
2022/12/05 05:07:45;;;;;;;35.85;22.38;;;;;;;;;;5045194;28;20433;-79
2022/12/05 05:10:13;;;;;;;36.28;22.38;;;;;;;;;;5044676;28;20429;-79
2022/12/05 05:12:39;;;;;;;31.58;21.13;;;;;;;;;;5049318;28;20444;-80
2022/12/05 05:15:08;;;;;;;31.10;19.48;;;;;;;;;;5046838;28;20424;-80
2022/12/05 05:17:36;;;;;;;30.70;20.10;;;;;;;;;;5048301;28;20434;-81
2022/12/05 05:20:22;;;;;;;27.83;18.10;;;;;;;;;;5045197;28;20425;-81
2022/12/05 05:22:49;;;;;;;28.38;18.25;;;;;;;;;;5043409;28;20430;-79
2022/12/05 05:25:15;;;;;;;29.52;18.65;;;;;;;;;;5045965;28;20421;-80
2022/12/05 05:27:42;;;;;;;31.15;18.55;;;;;;;;;;5041504;28;20904;-81
2022/12/05 05:30:10;;;;;;;29.35;17.98;;;;;;;;;;5046264;28;20433;-80
2022/12/05 05:32:36;;;;;;;27.48;17.95;;;;;;;;;;5044221;28;20410;-80
2022/12/05 05:35:03;;;;;;;25.33;16.67;;;;;;;;;;5048129;28;20436;-80
2022/12/05 05:37:29;;;;;;;28.63;17.25;;;;;;;;;;5045189;28;20429;-80
2022/12/05 05:39:56;;;;;;;27.85;17.65;;;;;;;;;;5047367;28;20426;-80
2022/12/05 05:42:22;;;;;;;28.40;16.80;;;;;;;;;;5044175;28;20425;-80
2022/12/05 05:44:49;;;;;;;27.37;16.83;;;;;;;;;;5043931;28;20415;-80
2022/12/05 05:47:16;;;;;;;28.30;17.17;;;;;;;;;;5044096;28;20482;-81
2022/12/05 05:49:43;;;;;;;24.98;15.90;;;;;;;;;;5047654;28;20912;-80
2022/12/05 05:52:09;;;;;;;23.20;15.02;;;;;;;;;;5046241;28;20436;-80
2022/12/05 05:54:36;;;;;;;23.90;15.20;;;;;;;;;;5045538;28;20417;-80
2022/12/05 05:57:02;;;;;;;25.60;16.08;;;;;;;;;;5045553;28;20437;-80
2022/12/05 05:59:28;;;;;;;26.10;14.38;;;;;;;;;;5041675;28;20413;-81
2022/12/05 06:01:55;;;;;;;23.10;15.38;;;;;;;;;;5045408;28;20422;-81
2022/12/05 06:04:23;;;;;;;22.90;14.05;;;;;;;;;;5048575;28;20430;-79
2022/12/05 06:06:49;;;;;;;24.80;14.52;;;;;;;;;;5046526;28;20441;-79
2022/12/05 06:09:16;;;;;;;25.05;14.35;;;;;;;;;;5046071;28;20463;-80
2022/12/05 06:11:43;;;;;;;22.40;14.13;;;;;;;;;;5049337;28;20424;-80
2022/12/05 06:14:10;;;;;;;22.48;14.05;;;;;;;;;;5046500;28;20438;-79
2022/12/05 06:16:36;;;;;;;19.98;13.35;;;;;;;;;;5048783;28;20436;-79
2022/12/05 06:19:02;;;;;;;23.85;14.27;;;;;;;;;;5052983;28;20432;-79
2022/12/05 06:21:30;;;;;;;23.67;14.05;;;;;;;;;;5047895;28;20428;-80
2022/12/05 06:23:57;;;;;;;21.48;13.95;;;;;;;;;;5051905;28;20439;-80
2022/12/05 06:26:23;;;;;;;21.35;14.00;;;;;;;;;;5050201;28;20429;-79
2022/12/05 06:28:50;;;;;;;22.70;14.60;;;;;;;;;;5053609;28;20425;-79
2022/12/05 06:31:17;;;;;;;23.73;14.77;;;;;;;;;;5052037;28;20528;-79
2022/12/05 06:33:43;;;;;;;21.85;14.10;;;;;;;;;;5048924;28;20426;-79
2022/12/05 06:36:11;;;;;;;22.20;15.20;;;;;;;;;;5046740;28;20417;-79
2022/12/05 06:38:39;;;;;;;22.23;14.17;;;;;;;;;;5049643;28;20427;-79
2022/12/05 06:41:06;;;;;;;23.17;14.35;;;;;;;;;;5048681;28;20430;-79
2022/12/05 06:43:33;;;;;;;23.15;14.40;;;;;;;;;;5052141;28;20809;-80
2022/12/05 06:45:59;;;;;;;24.13;14.73;;;;;;;;;;5051596;28;20421;-79
2022/12/05 06:48:26;;;;;;;21.20;14.10;;;;;;;;;;5047414;28;20430;-79
2022/12/05 06:50:54;;;;;;;21.77;14.70;;;;;;;;;;5048800;28;20429;-79
2022/12/05 06:53:20;;;;;;;21.40;13.90;;;;;;;;;;5048730;28;20911;-79
2022/12/05 06:55:56;;;;;;;21.55;13.88;;;;;;;;;;5049656;28;20768;-79
2022/12/05 06:58:22;;;;;;;17.58;13.38;;;;;;;;;;5048762;28;20478;-79
2022/12/05 07:03:33;;;;;;;21.48;14.13;;;;;;;;;;5043605;28;20426;-79
2022/12/05 07:05:59;;;;;;;20.38;13.20;;;;;;;;;;5040173;28;20437;-80
2022/12/05 07:08:26;;;;;;;22.73;14.02;;;;;;;;;;5047972;28;20458;-81
2022/12/05 07:10:53;;;;;;;18.90;13.27;;;;;;;;;;5048049;28;20423;-81
2022/12/05 07:13:21;;;;;;;21.85;13.13;;;;;;;;;;5048081;28;20401;-79
2022/12/05 07:15:48;;;;;;;19.00;12.82;;;;;;;;;;5045828;28;20429;-79
2022/12/05 07:18:14;;;;;;;17.95;12.10;;;;;;;;;;5048062;28;20413;-80
2022/12/05 07:20:45;;;;;;;19.13;12.15;;;;;;;;;;5048963;28;20413;-81
2022/12/05 07:23:11;;;;;;;16.70;10.55;;;;;;;;;;5048483;28;20425;-80
2022/12/05 07:25:39;;;;;;;16.42;10.60;;;;;;;;;;5047263;28;20426;-81
2022/12/05 07:28:05;;;;;;;21.63;11.65;;;;;;;;;;5049285;28;20429;-81
2022/12/05 07:30:33;;;;;;;16.33;10.25;;;;;;;;;;5044953;28;20426;-81
2022/12/05 07:33:00;;;;;;;16.83;10.40;;;;;;;;;;5044043;28;20418;-79
2022/12/05 07:35:26;;;;;;;12.80;9.38;;;;;;;;;;5044882;28;20422;-81
2022/12/05 07:37:53;;;;;;;11.93;8.27;;;;;;;;;;5046812;28;20429;-81
2022/12/05 07:40:20;;;;;;;12.05;8.30;;;;;;;;;;5046655;28;20415;-81
2022/12/05 07:42:47;;;;;;;11.40;8.23;;;;;;;;;;5045557;28;20422;-80
2022/12/05 07:45:14;;;;;;;14.50;9.75;;;;;;;;;;5045127;28;20828;-80
2022/12/05 07:47:42;;;;;;;11.20;7.60;;;;;;;;;;5048717;28;20899;-81
2022/12/05 07:50:09;;;;;;;9.40;7.10;;;;;;;;;;5044116;28;20428;-80
2022/12/05 07:52:36;;;;;;;9.27;6.40;;;;;;;;;;5046832;28;20425;-80
2022/12/05 07:55:02;;;;;;;8.75;6.05;;;;;;;;;;5043776;28;20961;-80
2022/12/05 07:57:29;;;;;;;8.52;5.63;;;;;;;;;;5044931;28;20874;-80
2022/12/05 07:59:55;;;;;;;6.60;5.40;;;;;;;;;;5046811;28;20416;-80
2022/12/05 08:02:23;;;;;;;9.55;6.35;;;;;;;;;;5044689;28;20412;-80
2022/12/05 08:04:51;;;;;;;7.88;5.45;;;;;;;;;;5044869;28;20407;-79
2022/12/05 08:07:17;;;;;;;7.18;5.53;;;;;;;;;;5047531;28;20435;-79
2022/12/05 08:09:44;;;;;;;7.90;5.67;;;;;;;;;;5040645;28;20784;-81
2022/12/05 08:12:10;;;;;;;7.80;5.50;;;;;;;;;;5041514;28;20416;-80
2022/12/05 08:14:36;;;;;;;10.35;5.75;;;;;;;;;;5046745;28;20911;-80
2022/12/05 08:17:03;;;;;;;8.50;5.30;;;;;;;;;;5041119;28;20411;-79
2022/12/05 08:19:30;;;;;;;6.20;4.63;;;;;;;;;;5046771;28;20421;-80
2022/12/05 08:21:58;;;;;;;8.30;5.70;;;;;;;;;;5048370;28;21001;-80
2022/12/05 08:24:25;;;;;;;8.00;6.00;;;;;;;;;;5046954;28;20488;-80
2022/12/05 08:26:52;;;;;;;9.63;6.30;;;;;;;;;;5041521;28;20432;-81
2022/12/05 08:29:20;;;;;;;8.45;6.47;;;;;;;;;;5041212;28;20418;-81
2022/12/05 08:31:47;;;;;;;9.68;5.97;;;;;;;;;;5043287;28;20492;-80
2022/12/05 08:34:14;;;;;;;10.25;6.57;;;;;;;;;;5044132;28;20448;-80
2022/12/05 08:36:41;;;;;;;9.68;7.15;;;;;;;;;;5043854;28;20421;-81
2022/12/05 08:39:13;;;;;;;10.00;6.75;;;;;;;;;;5043054;28;20424;-81
2022/12/05 08:41:39;;;;;;;9.85;7.20;;;;;;;;;;5045443;28;20463;-80
2022/12/05 08:44:07;;;;;;;10.27;7.30;;;;;;;;;;5045206;28;20426;-80
2022/12/05 08:46:34;;;;;;;10.95;7.93;;;;;;;;;;5044723;28;20464;-80
2022/12/05 08:49:01;;;;;;;10.52;7.05;;;;;;;;;;5044465;28;20452;-81
2022/12/05 08:51:28;;;;;;;11.85;8.27;;;;;;;;;;5046074;28;20411;-81
2022/12/05 08:53:55;;;;;;;11.10;8.15;;;;;;;;;;5043355;28;20430;-81
2022/12/05 08:56:24;;;;;;;14.10;8.68;;;;;;;;;;5044303;28;20429;-79
2022/12/05 08:58:50;;;;;;;15.03;8.50;;;;;;;;;;5045977;28;21299;-80
2022/12/05 09:01:17;;;;;;;14.70;8.80;;;;;;;;;;5045914;28;20429;-81
2022/12/05 09:03:44;;;;;;;15.55;10.10;;;;;;;;;;5047689;28;20436;-79
2022/12/05 09:06:12;;;;;;;13.82;9.10;;;;;;;;;;5048587;28;20418;-79
2022/12/05 09:08:38;;;;;;;16.00;10.15;;;;;;;;;;5046664;28;20429;-81
2022/12/05 09:11:06;;;;;;;15.90;11.00;;;;;;;;;;5045299;28;20451;-80
2022/12/05 09:13:34;;;;;;;18.80;11.68;;;;;;;;;;5047744;28;20410;-81
2022/12/05 09:16:04;;;;;;;19.95;12.82;;;;;;;;;;5045257;28;20422;-79
2022/12/05 09:18:31;;;;;;;22.23;13.70;;;;;;;;;;5044575;28;20780;-78
2022/12/05 09:20:57;;;;;;;23.00;13.75;;;;;;;;;;5046819;28;20930;-79
2022/12/05 09:23:24;;;;;;;25.17;15.90;;;;;;;;;;5046295;28;20437;-79
2022/12/05 09:25:54;;;;;;;21.77;14.02;;;;;;;;;;5047188;28;20424;-81
2022/12/05 09:28:21;;;;;;;22.75;13.85;;;;;;;;;;5045481;28;20421;-80
2022/12/05 09:30:57;;;;;;;23.35;14.70;;;;;;;;;;5048144;28;20434;-80
2022/12/05 09:33:23;;;;;;;26.92;14.68;;;;;;;;;;5043693;28;20436;-78
2022/12/05 09:35:51;;;;;;;29.33;16.05;;;;;;;;;;5047890;28;20787;-79
2022/12/05 09:38:18;;;;;;;27.58;15.95;;;;;;;;;;5048207;28;20440;-80
2022/12/05 09:40:44;;;;;;;30.00;16.03;;;;;;;;;;5046996;28;20417;-80
2022/12/05 09:43:19;;;;;;;27.75;17.23;;;;;;;;;;5047681;28;20433;-80
2022/12/05 09:45:51;;;;;;;26.30;15.48;;;;;;;;;;5048387;28;20895;-81
2022/12/05 09:48:21;;;;;;;30.75;18.05;;;;;;;;;;5048810;28;20413;-78
2022/12/05 09:50:49;;;;;;;31.33;18.07;;;;;;;;;;5042159;28;20502;-79
2022/12/05 09:53:21;;;;;;;28.85;17.08;;;;;;;;;;5050993;28;20426;-78
2022/12/05 09:55:51;;;;;;;28.67;17.40;;;;;;;;;;5050428;28;20413;-79
2022/12/05 09:58:25;;;;;;;34.58;19.15;;;;;;;;;;5049666;28;20429;-78
2022/12/05 10:00:54;;;;;;;29.55;17.63;;;;;;;;;;5048181;28;20409;-80
2022/12/05 10:03:28;;;;;;;35.42;19.80;;;;;;;;;;5051891;28;20417;-78
2022/12/05 10:05:58;;;;;;;36.50;19.80;;;;;;;;;;5046746;28;20419;-79
2022/12/05 10:08:26;;;;;;;34.00;18.00;;;;;;;;;;5046631;28;20429;-81
2022/12/05 10:10:59;;;;;;;39.28;20.00;;;;;;;;;;5047049;28;20436;-79
2022/12/05 10:13:37;;;;;;;35.80;19.67;;;;;;;;;;5048635;28;20510;-79
2022/12/05 10:16:06;;;;;;;38.75;21.02;;;;;;;;;;5049654;28;20424;-79
2022/12/05 10:18:39;;;;;;;35.50;20.07;;;;;;;;;;5051633;28;20899;-79
2022/12/05 10:21:10;;;;;;;36.92;21.90;;;;;;;;;;5048219;28;20973;-80
2022/12/05 10:23:39;;;;;;;37.00;20.65;;;;;;;;;;5050582;28;20440;-80
2022/12/05 10:26:09;;;;;;;44.15;22.67;;;;;;;;;;5052358;28;20856;-80
2022/12/05 10:28:38;;;;;;;46.63;23.92;;;;;;;;;;5045220;28;20423;-80
2022/12/05 10:31:08;;;;;;;43.60;23.23;;;;;;;;;;5048441;28;20422;-80
2022/12/05 10:33:38;;;;;;;47.92;24.17;;;;;;;;;;5047493;28;20437;-79
2022/12/05 10:36:09;;;;;;;48.17;24.42;;;;;;;;;;5047373;28;20442;-80
2022/12/05 10:38:37;;;;;;;49.50;23.92;;;;;;;;;;5049889;28;20500;-80
2022/12/05 10:41:05;;;;;;;45.65;23.83;;;;;;;;;;5049197;28;20418;-80
2022/12/05 10:43:33;;;;;;;44.47;23.35;;;;;;;;;;5048241;28;20421;-81
2022/12/05 10:46:00;;;;;;;45.05;22.75;;;;;;;;;;5051885;28;20422;-78
2022/12/05 10:48:26;;;;;;;46.35;23.25;;;;;;;;;;5045256;28;20419;-80
2022/12/05 10:50:55;;;;;;;43.65;23.13;;;;;;;;;;5048123;28;20949;-81
2022/12/05 10:53:24;;;;;;;48.63;24.42;;;;;;;;;;5050162;28;20421;-78
2022/12/05 10:55:51;;;;;;;46.88;24.65;;;;;;;;;;5049208;28;20433;-81
2022/12/05 10:58:22;;;;;;;48.75;24.52;;;;;;;;;;5047330;28;20409;-80
2022/12/05 11:00:50;;;;;;;49.38;24.35;;;;;;;;;;5050677;28;20429;-78
2022/12/05 11:03:22;;;;;;;45.42;23.98;;;;;;;;;;5045952;28;20488;-79
2022/12/05 11:05:49;;;;;;;48.63;24.50;;;;;;;;;;5046669;28;20975;-78
2022/12/05 11:08:22;;;;;;;44.70;24.67;;;;;;;;;;5042373;28;20434;-78
2022/12/05 11:10:58;;;;;;;50.25;25.17;;;;;;;;;;5047336;28;20518;-80
2022/12/05 11:13:25;;;;;;;49.42;25.85;;;;;;;;;;5044995;28;20433;-80
2022/12/05 11:15:52;;;;;;;51.60;25.67;;;;;;;;;;5042228;28;20433;-79
2022/12/05 11:18:19;;;;;;;54.90;27.25;;;;;;;;;;5048956;28;20418;-78
2022/12/05 11:20:48;;;;;;;52.42;26.17;;;;;;;;;;5046995;28;20415;-79
2022/12/05 11:23:24;;;;;;;55.25;27.50;;;;;;;;;;5043705;28;20445;-79
2022/12/05 11:25:54;;;;;;;48.58;26.00;;;;;;;;;;5043895;28;20421;-78
2022/12/05 11:28:29;;;;;;;49.17;25.80;;;;;;;;;;5042974;28;20429;-78
2022/12/05 11:30:56;;;;;;;47.88;26.30;;;;;;;;;;5045177;28;20429;-80
2022/12/05 11:33:24;;;;;;;47.95;25.35;;;;;;;;;;5049622;28;20417;-80
2022/12/05 11:35:51;;;;;;;49.65;26.60;;;;;;;;;;5047440;28;20435;-80
2022/12/05 11:38:19;;;;;;;47.90;25.13;;;;;;;;;;5045675;28;20413;-80
2022/12/05 11:40:53;;;;;;;48.60;24.42;;;;;;;;;;5045756;28;20418;-80
2022/12/05 11:43:34;;;;;;;46.45;23.90;;;;;;;;;;5042248;28;20447;-80
2022/12/05 11:46:09;;;;;;;48.13;25.08;;;;;;;;;;5043458;28;20914;-79
2022/12/05 11:48:45;;;;;;;46.40;25.40;;;;;;;;;;5040139;28;20812;-79
2022/12/05 11:51:18;;;;;;;49.28;25.30;;;;;;;;;;5042488;28;20953;-79
2022/12/05 11:53:52;;;;;;;48.28;25.30;;;;;;;;;;5045905;28;20419;-77
2022/12/05 11:56:26;;;;;;;46.40;24.60;;;;;;;;;;5041707;28;20417;-79
2022/12/05 11:58:56;;;;;;;50.28;24.30;;;;;;;;;;5042784;28;20417;-80
2022/12/05 12:01:30;;;;;;;43.75;22.95;;;;;;;;;;5044665;28;20417;-79
2022/12/05 12:04:03;;;;;;;44.10;24.33;;;;;;;;;;5042848;28;20417;-79
2022/12/05 12:06:32;;;;;;;48.80;24.40;;;;;;;;;;5047944;28;20444;-82
2022/12/05 12:09:06;;;;;;;44.42;22.95;;;;;;;;;;5050920;28;20417;-79
2022/12/05 12:11:37;;;;;;;45.45;24.10;;;;;;;;;;5046961;28;20409;-79
2022/12/05 12:14:11;;;;;;;45.58;22.88;;;;;;;;;;5049034;28;20419;-79
2022/12/05 12:16:42;;;;;;;40.60;21.55;;;;;;;;;;5049127;28;20981;-79
2022/12/05 12:19:15;;;;;;;44.45;23.40;;;;;;;;;;5049940;28;20416;-79
2022/12/05 12:21:56;;;;;;;45.88;24.77;;;;;;;;;;5048126;28;20485;-80
2022/12/05 12:24:26;;;;;;;46.88;24.23;;;;;;;;;;5046766;28;20435;-79
2022/12/05 12:26:58;;;;;;;45.15;23.08;;;;;;;;;;5047798;28;20421;-80
2022/12/05 12:29:33;;;;;;;43.88;23.98;;;;;;;;;;5047417;28;20863;-79
2022/12/05 12:32:08;;;;;;;49.35;25.25;;;;;;;;;;5046686;28;20409;-79
2022/12/05 12:34:47;;;;;;;44.88;23.40;;;;;;;;;;5048772;28;20428;-78
2022/12/05 12:37:19;;;;;;;47.00;24.20;;;;;;;;;;5045467;28;20430;-78
2022/12/05 12:39:50;;;;;;;45.80;23.58;;;;;;;;;;5044554;28;20419;-78
2022/12/05 12:42:20;;;;;;;45.28;24.13;;;;;;;;;;5041384;28;20424;-78
2022/12/05 12:45:04;;;;;;;45.78;24.05;;;;;;;;;;5048907;28;20425;-79
2022/12/05 12:47:38;;;;;;;42.47;24.03;;;;;;;;;;5006358;28;20455;-79
2022/12/05 12:50:12;;;;;;;46.07;25.43;;;;;;;;;;5044095;28;20417;-79
2022/12/05 12:52:49;;;;;;;46.95;25.35;;;;;;;;;;5049161;28;20443;-79
2022/12/05 12:55:21;;;;;;;47.38;24.40;;;;;;;;;;5046453;28;20420;-79
2022/12/05 12:57:55;;;;;;;46.53;24.77;;;;;;;;;;5045581;28;20457;-79
2022/12/05 13:00:26;;;;;;;49.28;26.58;;;;;;;;;;5047749;28;20418;-79
2022/12/05 13:02:56;;;;;;;50.47;24.48;;;;;;;;;;5047402;28;20440;-79
2022/12/05 13:05:28;;;;;;;52.35;25.50;;;;;;;;;;5046494;28;20449;-79
2022/12/05 13:07:57;;;;;;;47.70;25.20;;;;;;;;;;5051073;28;20457;-78
2022/12/05 13:10:26;;;;;;;48.50;24.75;;;;;;;;;;5049458;28;20427;-78
2022/12/05 13:12:54;;;;;;;36.25;19.85;;;;;;;;;;5049855;28;20426;-80
2022/12/05 13:15:24;;;;;;;23.88;15.20;;;;;;;;;;5048628;28;20484;-79
2022/12/05 13:17:51;;;;;;;22.55;15.27;;;;;;;;;;5050424;28;20798;-79
2022/12/05 13:20:20;;;;;;;24.27;15.32;;;;;;;;;;5051663;28;20405;-77
2022/12/05 13:22:48;;;;;;;25.23;15.00;;;;;;;;;;5051810;28;20416;-80
2022/12/05 13:25:16;;;;;;;22.13;13.98;;;;;;;;;;5050593;28;20421;-80
2022/12/05 13:27:53;;;;;;;21.92;14.45;;;;;;;;;;5049915;28;20433;-79
2022/12/05 13:30:20;;;;;;;21.97;14.23;;;;;;;;;;5050346;28;20852;-79
2022/12/05 13:32:46;;;;;;;26.00;15.50;;;;;;;;;;5050181;28;20933;-80
2022/12/05 13:35:17;;;;;;;23.85;14.32;;;;;;;;;;5046285;28;20428;-79
2022/12/05 13:43:17;;;;;;;19.50;14.20;;;;;;;;;;5054190;28;20447;-79
2022/12/05 13:45:53;;;;;;;22.10;13.95;;;;;;;;;;5045087;28;20415;-79
2022/12/05 13:48:22;;;;;;;21.70;14.00;;;;;;;;;;5051787;28;20433;-79
2022/12/05 13:50:52;;;;;;;21.42;14.00;;;;;;;;;;5047091;28;20421;-79
2022/12/05 13:53:32;;;;;;;20.90;14.40;;;;;;;;;;5048424;28;20420;-79
2022/12/05 13:55:59;;;;;;;20.52;14.02;;;;;;;;;;5050949;28;20421;-80
2022/12/05 13:58:42;;;;;;;21.80;14.07;;;;;;;;;;5048071;28;20441;-77
2022/12/05 14:01:42;;;;;;;24.38;15.30;;;;;;;;;;5049900;28;20919;-79
2022/12/05 14:04:23;;;;;;;25.48;16.00;;;;;;;;;;5005664;28;20523;-79
2022/12/05 14:06:56;;;;;;;24.30;15.55;;;;;;;;;;5007026;28;20873;-79
2022/12/05 14:09:30;;;;;;;24.10;16.10;;;;;;;;;;5024023;28;20429;-79
2022/12/05 14:12:18;;;;;;;29.38;16.35;;;;;;;;;;5047631;28;20900;-79
2022/12/05 14:15:00;;;;;;;30.38;18.48;;;;;;;;;;5047212;28;20415;-79
2022/12/05 14:17:28;;;;;;;30.25;18.40;;;;;;;;;;5048976;28;20487;-80
2022/12/05 14:20:10;;;;;;;28.83;18.20;;;;;;;;;;5047074;28;20413;-79
2022/12/05 14:22:42;;;;;;;28.27;16.70;;;;;;;;;;5040483;28;20426;-79
2022/12/05 14:25:13;;;;;;;32.72;18.38;;;;;;;;;;5046902;28;20954;-79
2022/12/05 14:27:45;;;;;;;27.60;18.13;;;;;;;;;;5049022;28;20422;-79
2022/12/05 14:30:20;;;;;;;27.02;16.95;;;;;;;;;;5050701;28;20439;-80
2022/12/05 14:32:47;;;;;;;31.63;18.33;;;;;;;;;;5050842;28;20994;-79
2022/12/05 14:35:15;;;;;;;30.58;18.15;;;;;;;;;;5040575;28;20499;-79
2022/12/05 14:37:42;;;;;;;28.63;17.67;;;;;;;;;;5046636;28;20427;-79
2022/12/05 14:40:20;;;;;;;34.97;18.80;;;;;;;;;;5049577;28;20432;-79
2022/12/05 14:42:52;;;;;;;34.83;19.15;;;;;;;;;;5047213;28;20441;-79